createdAt,value
2022-10-05T00:00:17.944Z,0.93
2022-10-05T00:02:46.548Z,1.00
2022-10-05T00:05:19.991Z,1.03
2022-10-05T00:07:47.331Z,0.90
2022-10-05T00:10:16.984Z,0.73
2022-10-05T00:12:48.478Z,0.80
2022-10-05T00:15:17.774Z,1.00
2022-10-05T00:17:45.109Z,1.10
2022-10-05T00:20:19.070Z,0.80
2022-10-05T00:22:46.530Z,0.80
2022-10-05T00:25:16.661Z,0.80
2022-10-05T00:27:44.504Z,0.90
2022-10-05T00:30:14.549Z,1.13
2022-10-05T00:32:43.015Z,0.90
2022-10-05T00:35:10.862Z,0.90
2022-10-05T00:37:38.575Z,0.90
2022-10-05T00:40:21.045Z,0.80
2022-10-05T00:43:11.298Z,1.07
2022-10-05T00:45:40.954Z,1.00
2022-10-05T00:48:18.260Z,0.90
2022-10-05T00:50:54.840Z,1.00
2022-10-05T00:53:31.490Z,0.80
2022-10-05T00:56:04.846Z,0.97
2022-10-05T00:58:51.240Z,0.90
2022-10-05T01:01:28.804Z,1.00
2022-10-05T01:03:56.171Z,1.00
2022-10-05T01:06:38.624Z,0.80
2022-10-05T01:09:22.555Z,0.97
2022-10-05T01:12:02.534Z,0.80
2022-10-05T01:14:56.412Z,0.97
2022-10-05T01:17:27.538Z,0.77
2022-10-05T01:20:10.520Z,0.90
2022-10-05T01:22:40.855Z,0.80
2022-10-05T01:25:27.095Z,0.90
2022-10-05T01:28:03.178Z,0.80
2022-10-05T01:30:51.653Z,1.10
2022-10-05T01:33:36.703Z,0.70
2022-10-05T01:36:03.975Z,0.77
2022-10-05T01:38:42.256Z,0.80
2022-10-05T01:41:42.076Z,0.83
2022-10-05T01:44:12.665Z,0.90
2022-10-05T01:46:45.588Z,0.60
2022-10-05T01:49:32.066Z,0.90
2022-10-05T01:52:14.732Z,0.87
2022-10-05T01:54:55.439Z,0.90
2022-10-05T01:57:29.024Z,0.80
2022-10-05T02:00:08.421Z,0.70
2022-10-05T02:02:49.418Z,0.70
2022-10-05T02:05:16.675Z,0.80
2022-10-05T02:07:53.373Z,0.60
2022-10-05T02:10:32.026Z,0.90
2022-10-05T02:13:02.958Z,0.80
2022-10-05T02:15:52.752Z,0.80
2022-10-05T02:18:21.888Z,0.70
2022-10-05T02:20:50.526Z,0.83
2022-10-05T02:23:22.694Z,0.70
2022-10-05T02:25:51.899Z,0.80
2022-10-05T02:28:25.588Z,1.00
2022-10-05T02:30:59.230Z,0.80
2022-10-05T02:33:30.896Z,0.80
2022-10-05T02:36:03.000Z,0.87
2022-10-05T02:38:49.920Z,0.80
2022-10-05T02:41:26.331Z,0.90
2022-10-05T02:43:57.589Z,1.10
2022-10-05T02:46:50.781Z,0.80
2022-10-05T02:49:24.855Z,0.73
2022-10-05T02:51:55.621Z,0.87
2022-10-05T02:54:23.066Z,0.90
2022-10-05T02:56:57.100Z,0.80
2022-10-05T02:59:31.235Z,0.80
2022-10-05T03:02:09.029Z,0.80
2022-10-05T03:04:39.515Z,0.90
2022-10-05T03:07:12.571Z,0.80
2022-10-05T03:09:55.709Z,0.87
2022-10-05T03:12:33.607Z,0.80
2022-10-05T03:15:11.058Z,0.80
2022-10-05T03:17:42.588Z,0.50
2022-10-05T03:20:30.914Z,0.70
2022-10-05T03:23:01.413Z,0.80
2022-10-05T03:25:46.116Z,0.93
2022-10-05T03:28:23.895Z,0.80
2022-10-05T03:31:01.566Z,0.73
2022-10-05T03:33:47.965Z,0.80
2022-10-05T03:36:33.822Z,0.80
2022-10-05T03:39:11.137Z,0.70
2022-10-05T03:41:38.826Z,0.80
2022-10-05T03:44:18.252Z,0.70
2022-10-05T03:47:00.991Z,1.00
2022-10-05T03:49:47.633Z,0.80
2022-10-05T03:52:18.327Z,1.00
2022-10-05T03:54:54.837Z,0.87
2022-10-05T03:57:26.805Z,0.80
2022-10-05T04:00:12.854Z,0.90
2022-10-05T04:02:51.679Z,0.90
2022-10-05T04:05:27.895Z,0.93
2022-10-05T04:07:59.870Z,0.90
2022-10-05T04:10:29.730Z,1.00
2022-10-05T04:13:15.884Z,1.00
2022-10-05T04:15:46.653Z,0.90
2022-10-05T04:18:23.407Z,1.00
2022-10-05T04:20:53.283Z,1.13
2022-10-05T04:23:41.990Z,1.13
2022-10-05T04:26:16.471Z,1.10
2022-10-05T04:28:57.367Z,1.00
2022-10-05T04:31:39.844Z,1.20
2022-10-05T04:34:16.314Z,1.03
2022-10-05T04:36:49.816Z,0.97
2022-10-05T04:39:24.546Z,1.17
2022-10-05T04:42:04.258Z,0.87
2022-10-05T04:44:48.933Z,1.20
2022-10-05T04:47:22.868Z,1.00
2022-10-05T04:49:53.530Z,1.20
2022-10-05T04:52:26.800Z,0.90
2022-10-05T04:55:03.470Z,0.90
2022-10-05T04:57:38.652Z,0.83
2022-10-05T05:00:10.834Z,1.07
2022-10-05T05:02:57.512Z,1.20
2022-10-05T05:06:05.031Z,1.10
2022-10-05T05:08:41.084Z,1.20
2022-10-05T05:11:17.389Z,1.10
2022-10-05T05:13:49.765Z,1.00
2022-10-05T05:16:32.444Z,1.13
2022-10-05T05:19:09.845Z,1.27
2022-10-05T05:21:40.263Z,1.00
2022-10-05T05:24:26.038Z,1.30
2022-10-05T05:26:56.953Z,1.30
2022-10-05T05:29:33.151Z,1.10
2022-10-05T05:32:11.730Z,1.10
2022-10-05T05:34:45.090Z,0.90
2022-10-05T05:37:12.454Z,1.23
2022-10-05T05:39:49.900Z,1.03
2022-10-05T05:42:37.794Z,1.00
2022-10-05T05:45:11.374Z,0.80
2022-10-05T05:47:39.879Z,1.20
2022-10-05T05:50:25.073Z,0.90
2022-10-05T05:52:56.285Z,0.93
2022-10-05T05:55:30.096Z,1.00
2022-10-05T05:58:17.912Z,1.10
2022-10-05T06:00:48.006Z,0.93
2022-10-05T06:03:26.712Z,1.03
2022-10-05T06:06:00.003Z,0.90
2022-10-05T06:08:40.027Z,1.10
2022-10-05T06:11:26.818Z,0.80
2022-10-05T06:13:55.354Z,0.90
2022-10-05T06:16:35.970Z,1.00
2022-10-05T06:19:12.143Z,1.00
2022-10-05T06:21:45.067Z,1.10
2022-10-05T06:24:16.814Z,1.13
2022-10-05T06:27:07.454Z,1.17
2022-10-05T06:29:54.569Z,1.00
2022-10-05T06:32:26.410Z,1.10
2022-10-05T06:34:54.181Z,1.00
2022-10-05T06:37:28.986Z,1.03
2022-10-05T06:40:01.191Z,1.13
2022-10-05T06:42:38.113Z,0.93
2022-10-05T06:45:24.820Z,1.10
2022-10-05T06:48:41.613Z,1.00
2022-10-05T06:51:56.613Z,0.90
2022-10-05T06:54:36.357Z,1.03
2022-10-05T06:57:08.278Z,1.00
2022-10-05T06:59:48.068Z,1.10
2022-10-05T07:02:15.472Z,1.10
2022-10-05T07:04:49.603Z,1.03
2022-10-05T07:07:38.749Z,1.30
2022-10-05T07:10:14.654Z,1.20
2022-10-05T07:12:45.891Z,1.10
2022-10-05T07:15:35.485Z,1.13
2022-10-05T07:18:16.328Z,1.10
2022-10-05T07:20:49.512Z,1.27
2022-10-05T07:23:38.387Z,1.27
2022-10-05T07:26:10.075Z,1.10
2022-10-05T07:28:47.857Z,1.30
2022-10-05T07:31:34.830Z,1.30
2022-10-05T07:34:05.796Z,1.20
2022-10-05T07:37:05.004Z,1.27
2022-10-05T07:39:59.192Z,1.37
2022-10-05T07:42:32.561Z,1.23
2022-10-05T07:45:07.328Z,1.33
2022-10-05T07:47:44.613Z,1.30
2022-10-05T07:50:21.777Z,1.30
2022-10-05T07:52:57.257Z,1.40
2022-10-05T07:55:26.871Z,1.40
2022-10-05T07:57:57.657Z,1.40
2022-10-05T08:00:28.080Z,1.33
2022-10-05T08:03:11.057Z,1.30
2022-10-05T08:05:41.374Z,1.27
2022-10-05T08:08:13.358Z,1.30
2022-10-05T08:10:52.332Z,1.50
2022-10-05T08:13:19.649Z,1.37
2022-10-05T08:15:51.498Z,1.30
2022-10-05T08:18:22.589Z,1.40
2022-10-05T08:20:55.449Z,1.50
2022-10-05T08:23:25.923Z,1.40
2022-10-05T08:26:03.000Z,1.10
2022-10-05T08:28:39.430Z,1.57
2022-10-05T08:31:11.820Z,1.40
2022-10-05T08:33:46.810Z,1.50
2022-10-05T08:36:15.246Z,1.50
2022-10-05T08:38:42.766Z,1.40
2022-10-05T08:41:28.579Z,1.63
2022-10-05T08:43:55.890Z,1.33
2022-10-05T08:46:55.426Z,1.57
2022-10-05T08:49:42.070Z,1.60
2022-10-05T08:52:12.124Z,1.30
2022-10-05T08:54:48.524Z,1.40
2022-10-05T08:57:34.680Z,1.40
2022-10-05T09:00:10.375Z,1.30
2022-10-05T09:02:40.895Z,1.33
2022-10-05T09:05:08.198Z,1.47
2022-10-05T09:07:38.242Z,1.33
2022-10-05T09:10:12.466Z,1.40
2022-10-05T09:12:58.562Z,1.57
2022-10-05T09:15:28.676Z,1.10
2022-10-05T09:18:05.135Z,1.40
2022-10-05T09:20:46.170Z,1.30
2022-10-05T09:23:15.184Z,1.30
2022-10-05T09:25:57.861Z,1.37
2022-10-05T09:28:25.218Z,1.40
2022-10-05T09:31:12.897Z,1.17
2022-10-05T09:33:43.327Z,1.37
2022-10-05T09:36:30.511Z,1.40
2022-10-05T09:38:58.094Z,1.40
2022-10-05T09:41:44.787Z,1.03
2022-10-05T09:44:29.968Z,1.40
2022-10-05T09:46:57.289Z,1.47
2022-10-05T09:49:24.663Z,1.27
2022-10-05T09:52:13.068Z,1.37
2022-10-05T09:55:05.519Z,1.60
2022-10-05T09:57:49.383Z,1.30
2022-10-05T10:00:26.409Z,1.20
2022-10-05T10:03:19.900Z,1.40
2022-10-05T10:05:50.240Z,1.10
2022-10-05T10:08:36.574Z,1.30
2022-10-05T10:11:04.014Z,1.20
2022-10-05T10:13:46.774Z,1.20
2022-10-05T10:16:19.554Z,1.27
2022-10-05T10:18:59.409Z,1.10
2022-10-05T10:21:45.650Z,1.20
2022-10-05T10:24:33.060Z,1.10
2022-10-05T10:27:18.968Z,1.10
2022-10-05T10:30:03.422Z,1.00
2022-10-05T10:32:57.863Z,1.40
2022-10-05T10:35:31.600Z,1.20
2022-10-05T10:38:26.543Z,1.17
2022-10-05T10:41:08.983Z,1.10
2022-10-05T10:43:55.073Z,1.30
2022-10-05T10:46:39.744Z,1.10
2022-10-05T10:49:30.527Z,1.10
2022-10-05T10:52:16.120Z,1.00
2022-10-05T10:54:43.419Z,1.10
2022-10-05T10:57:15.382Z,1.00
2022-10-05T11:00:01.530Z,1.30
2022-10-05T11:02:28.839Z,1.00
2022-10-05T11:05:03.129Z,1.20
2022-10-05T11:07:38.888Z,1.07
2022-10-05T11:10:16.253Z,1.00
2022-10-05T11:12:55.923Z,1.10
2022-10-05T11:15:52.842Z,1.00
2022-10-05T11:18:38.840Z,1.00
2022-10-05T11:21:12.014Z,0.90
2022-10-05T11:23:39.317Z,1.10
2022-10-05T11:26:09.669Z,1.40
2022-10-05T11:28:46.064Z,0.93
2022-10-05T11:31:22.652Z,1.13
2022-10-05T11:33:58.372Z,1.13
2022-10-05T11:36:31.694Z,1.30
2022-10-05T11:39:02.365Z,1.10
2022-10-05T11:41:55.585Z,1.33
2022-10-05T11:44:42.950Z,1.30
2022-10-05T11:47:22.582Z,1.10
2022-10-05T11:49:49.862Z,1.23
2022-10-05T11:52:17.111Z,1.10
2022-10-05T11:55:10.996Z,1.43
2022-10-05T11:57:46.951Z,1.20
2022-10-05T12:00:20.952Z,1.10
2022-10-05T12:02:57.822Z,1.50
2022-10-05T12:05:33.185Z,1.47
2022-10-05T12:08:19.439Z,1.30
2022-10-05T12:10:46.650Z,1.10
2022-10-05T12:13:33.423Z,1.23
2022-10-05T12:16:16.949Z,1.40
2022-10-05T12:18:51.021Z,1.20
2022-10-05T12:21:24.617Z,1.30
2022-10-05T12:24:00.666Z,1.20
2022-10-05T12:26:28.239Z,1.17
2022-10-05T12:29:01.881Z,1.10
2022-10-05T12:31:29.650Z,1.20
2022-10-05T12:34:03.116Z,1.57
2022-10-05T12:37:05.873Z,1.20
2022-10-05T12:39:40.108Z,1.20
2022-10-05T12:42:17.004Z,1.30
2022-10-05T12:44:44.235Z,1.13
2022-10-05T12:47:11.643Z,1.43
2022-10-05T12:50:05.346Z,1.30
2022-10-05T12:52:51.233Z,1.23
2022-10-05T12:55:26.384Z,1.37
2022-10-05T12:58:12.608Z,1.30
2022-10-05T13:00:57.341Z,1.20
2022-10-05T13:03:26.331Z,1.30
2022-10-05T13:06:04.581Z,1.27
2022-10-05T13:08:52.143Z,1.50
2022-10-05T13:11:36.677Z,1.30
2022-10-05T13:14:14.555Z,1.33
2022-10-05T13:17:08.462Z,1.50
2022-10-05T13:19:35.710Z,1.33
2022-10-05T13:22:08.910Z,1.17
2022-10-05T13:24:40.453Z,1.40
2022-10-05T13:27:19.844Z,1.30
2022-10-05T13:29:56.311Z,1.27
2022-10-05T13:32:30.144Z,1.30
2022-10-05T13:35:11.391Z,1.13
2022-10-05T13:37:47.461Z,1.30
2022-10-05T13:40:25.385Z,1.13
2022-10-05T13:42:59.136Z,1.30
2022-10-05T13:45:32.932Z,1.40
2022-10-05T13:48:07.305Z,1.30
2022-10-05T13:50:35.743Z,1.40
2022-10-05T13:53:18.827Z,1.27
2022-10-05T13:56:07.470Z,1.20
2022-10-05T13:58:54.216Z,1.43
2022-10-05T14:01:43.513Z,1.10
2022-10-05T14:04:19.831Z,1.20
2022-10-05T14:06:48.494Z,1.30
2022-10-05T14:09:25.369Z,1.30
2022-10-05T14:12:04.918Z,1.20
2022-10-05T14:14:34.047Z,1.30
2022-10-05T14:17:05.454Z,1.23
2022-10-05T14:19:36.085Z,1.20
2022-10-05T14:22:11.655Z,1.03
2022-10-05T14:24:52.837Z,1.13
2022-10-05T14:27:23.274Z,1.20
2022-10-05T14:30:03.282Z,1.20
2022-10-05T14:32:32.785Z,1.40
2022-10-05T14:35:00.039Z,1.00
2022-10-05T14:37:33.104Z,1.30
2022-10-05T14:40:21.420Z,1.10
2022-10-05T14:42:48.908Z,1.17
2022-10-05T14:45:18.527Z,1.20
2022-10-05T14:47:53.758Z,1.20
2022-10-05T14:50:29.872Z,1.00
2022-10-05T14:53:16.627Z,1.20
2022-10-05T14:55:56.286Z,0.90
2022-10-05T14:58:32.758Z,1.07
2022-10-05T15:01:13.699Z,1.00
2022-10-05T15:04:01.304Z,1.20
2022-10-05T15:06:33.961Z,1.20
2022-10-05T15:09:17.376Z,1.30
2022-10-05T15:11:55.665Z,1.30
2022-10-05T15:14:23.214Z,1.13
2022-10-05T15:16:52.202Z,1.40
2022-10-05T15:19:21.826Z,1.30
2022-10-05T15:21:57.997Z,1.00
2022-10-05T15:24:27.933Z,1.20
2022-10-05T15:26:56.785Z,1.30
2022-10-05T15:29:41.991Z,1.30
2022-10-05T15:32:41.533Z,1.20
2022-10-05T15:35:27.455Z,1.20
2022-10-05T15:37:57.922Z,1.10
2022-10-05T15:40:33.506Z,1.20
2022-10-05T15:43:04.588Z,1.10
2022-10-05T15:45:33.828Z,1.40
2022-10-05T15:48:01.573Z,1.20
2022-10-05T15:50:37.731Z,1.23
2022-10-05T15:53:24.036Z,1.37
2022-10-05T15:56:04.146Z,1.40
2022-10-05T15:58:50.067Z,1.20
2022-10-05T16:01:23.668Z,1.20
2022-10-05T16:04:10.937Z,1.23
2022-10-05T16:06:56.903Z,1.00
2022-10-05T16:09:27.327Z,0.90
2022-10-05T16:12:05.641Z,1.13
2022-10-05T16:14:35.454Z,1.10
2022-10-05T16:17:21.706Z,1.10
2022-10-05T16:20:07.756Z,0.90
2022-10-05T16:22:44.519Z,0.97
2022-10-05T16:25:24.324Z,1.10
2022-10-05T16:27:52.583Z,1.07
2022-10-05T16:30:21.128Z,0.90
2022-10-05T16:32:56.407Z,1.30
2022-10-05T16:35:24.891Z,1.20
2022-10-05T16:37:58.031Z,1.40
2022-10-05T16:40:36.415Z,1.10
2022-10-05T16:43:17.376Z,1.00
2022-10-05T16:45:52.573Z,1.00
2022-10-05T16:48:23.082Z,1.20
2022-10-05T16:50:55.107Z,1.13
2022-10-05T16:53:34.961Z,1.20
2022-10-05T16:56:04.532Z,1.30
2022-10-05T16:58:41.096Z,1.30
2022-10-05T17:01:26.956Z,1.17
2022-10-05T17:04:17.113Z,1.00
2022-10-05T17:06:44.343Z,1.07
2022-10-05T17:09:11.793Z,1.30
2022-10-05T17:12:05.360Z,1.33
2022-10-05T17:14:37.685Z,1.10
2022-10-05T17:17:17.225Z,1.10
2022-10-05T17:20:01.127Z,1.33
2022-10-05T17:22:34.439Z,1.10
2022-10-05T17:25:06.558Z,1.13
2022-10-05T17:27:52.462Z,1.40
2022-10-05T17:30:19.741Z,1.20
2022-10-05T17:32:58.453Z,1.10
2022-10-05T17:35:47.058Z,1.10
2022-10-05T17:38:18.207Z,1.30
2022-10-05T17:41:01.049Z,1.27
2022-10-05T17:43:29.994Z,1.23
2022-10-05T17:45:58.871Z,1.33
2022-10-05T17:48:36.632Z,1.10
2022-10-05T17:51:27.205Z,1.10
2022-10-05T17:54:13.186Z,1.13
2022-10-05T17:56:49.740Z,1.07
2022-10-05T17:59:38.562Z,1.20
2022-10-05T18:02:15.865Z,1.10
2022-10-05T18:04:50.340Z,1.00
2022-10-05T18:07:24.099Z,1.40
2022-10-05T18:09:56.663Z,1.47
2022-10-05T18:12:45.014Z,1.30
2022-10-05T18:15:35.173Z,1.20
2022-10-05T18:18:33.502Z,1.10
2022-10-05T18:21:18.330Z,1.50
2022-10-05T18:24:00.794Z,1.33
2022-10-05T18:26:36.978Z,1.30
2022-10-05T18:29:43.129Z,1.50
2022-10-05T18:32:18.987Z,0.90
2022-10-05T18:34:54.018Z,1.30
2022-10-05T18:37:31.563Z,1.10
2022-10-05T18:40:16.617Z,1.17
2022-10-05T18:42:43.955Z,1.00
2022-10-05T18:45:26.750Z,0.90
2022-10-05T18:48:12.162Z,1.10
2022-10-05T18:50:47.459Z,0.90
2022-10-05T18:53:24.830Z,0.90
2022-10-05T18:56:15.258Z,0.90
2022-10-05T18:58:52.133Z,1.00
2022-10-05T19:01:29.243Z,0.90
2022-10-05T19:04:23.482Z,0.90
2022-10-05T19:07:08.107Z,1.03
2022-10-05T19:09:54.213Z,0.97
2022-10-05T19:12:26.656Z,1.00
2022-10-05T19:15:14.210Z,0.83
2022-10-05T19:18:02.408Z,1.10
2022-10-05T19:20:37.394Z,0.97
2022-10-05T19:23:12.507Z,1.30
2022-10-05T19:25:44.378Z,1.00
2022-10-05T19:28:19.313Z,1.10
2022-10-05T19:31:05.566Z,0.97
2022-10-05T19:33:45.324Z,1.00
2022-10-05T19:36:18.862Z,1.07
2022-10-05T19:39:05.075Z,0.90
2022-10-05T19:41:55.110Z,0.97
2022-10-05T19:44:38.413Z,0.80
2022-10-05T19:47:21.414Z,0.80
2022-10-05T19:49:50.153Z,1.23
2022-10-05T19:52:22.503Z,0.90
2022-10-05T19:55:01.814Z,0.80
2022-10-05T19:57:29.184Z,0.70
2022-10-05T19:59:57.925Z,0.70
2022-10-05T20:02:28.309Z,0.80
2022-10-05T20:05:06.007Z,0.70
2022-10-05T20:07:34.365Z,0.80
2022-10-05T20:10:20.469Z,0.80
2022-10-05T20:12:50.735Z,0.80
2022-10-05T20:15:38.504Z,0.70
2022-10-05T20:18:43.584Z,0.53
2022-10-05T20:21:30.845Z,0.53
2022-10-05T20:24:11.716Z,0.70
2022-10-05T20:26:57.942Z,0.50
2022-10-05T20:29:25.254Z,0.60
2022-10-05T20:31:52.741Z,0.50
2022-10-05T20:34:21.628Z,0.70
2022-10-05T20:36:49.532Z,0.63
2022-10-05T20:39:17.233Z,0.50
2022-10-05T20:41:45.183Z,0.70
2022-10-05T20:44:13.199Z,0.53
2022-10-05T20:46:43.279Z,0.77
2022-10-05T20:49:10.991Z,0.60
2022-10-05T20:51:40.105Z,0.73
2022-10-05T20:54:08.175Z,0.70
2022-10-05T20:56:35.738Z,0.50
2022-10-05T20:59:03.059Z,0.60
2022-10-05T21:01:31.888Z,0.83
2022-10-05T21:03:59.347Z,0.70
2022-10-05T21:06:29.502Z,0.80
2022-10-05T21:08:56.851Z,0.70
2022-10-05T21:11:24.150Z,0.77
2022-10-05T21:13:53.631Z,0.70
2022-10-05T21:16:21.387Z,0.70
2022-10-05T21:18:49.089Z,0.70
2022-10-05T21:21:17.269Z,0.67
2022-10-05T21:23:45.175Z,0.70
2022-10-05T21:26:12.553Z,0.80
2022-10-05T21:28:40.457Z,0.70
2022-10-05T21:31:08.224Z,0.73
2022-10-05T21:33:35.709Z,0.70
2022-10-05T21:36:03.164Z,1.00
2022-10-05T21:38:30.892Z,0.60
2022-10-05T21:40:58.426Z,0.80
2022-10-05T21:43:26.352Z,0.87
2022-10-05T21:45:54.786Z,0.60
2022-10-05T21:48:22.496Z,0.90
2022-10-05T21:50:49.770Z,0.80
2022-10-05T21:53:18.172Z,0.80
2022-10-05T21:55:47.796Z,0.83
2022-10-05T21:58:15.673Z,0.60
2022-10-05T22:00:43.035Z,0.60
2022-10-05T22:03:10.389Z,0.80
2022-10-05T22:05:37.788Z,0.70
2022-10-05T22:08:05.668Z,0.80
2022-10-05T22:10:33.656Z,0.63
2022-10-05T22:13:01.831Z,0.70
2022-10-05T22:15:29.771Z,0.70
2022-10-05T22:17:57.707Z,0.70
2022-10-05T22:20:25.265Z,0.67
2022-10-05T22:22:53.869Z,0.73
2022-10-05T22:25:21.922Z,0.73
2022-10-05T22:27:49.971Z,0.80
2022-10-05T22:30:17.764Z,0.83
2022-10-05T22:32:45.324Z,0.70
2022-10-05T22:35:12.615Z,0.80
2022-10-05T22:37:39.930Z,1.00
2022-10-05T22:40:08.034Z,0.87
2022-10-05T22:42:35.520Z,0.80
2022-10-05T22:45:02.777Z,0.80
2022-10-05T22:47:30.082Z,0.90
2022-10-05T22:49:57.342Z,0.97
2022-10-05T22:52:24.611Z,0.70
2022-10-05T22:54:51.886Z,0.77
2022-10-05T22:57:19.189Z,0.80
2022-10-05T22:59:46.666Z,0.80
2022-10-05T23:02:14.147Z,0.93
2022-10-05T23:04:41.470Z,0.90
2022-10-05T23:07:08.774Z,0.80
2022-10-05T23:09:36.087Z,0.70
2022-10-05T23:12:03.382Z,1.00
2022-10-05T23:14:31.046Z,0.80
2022-10-05T23:16:58.372Z,0.93
2022-10-05T23:19:25.712Z,0.90
2022-10-05T23:21:53.042Z,1.10
2022-10-05T23:24:20.321Z,0.80
2022-10-05T23:26:47.603Z,0.77
2022-10-05T23:29:14.946Z,0.80
2022-10-05T23:31:42.257Z,0.70
2022-10-05T23:34:09.515Z,0.70
2022-10-05T23:36:36.848Z,0.87
2022-10-05T23:39:04.212Z,0.90
2022-10-05T23:41:31.521Z,0.83
2022-10-05T23:43:58.776Z,0.77
2022-10-05T23:46:26.103Z,0.70
2022-10-05T23:48:53.455Z,0.80
2022-10-05T23:51:20.897Z,0.80
2022-10-05T23:53:48.143Z,0.80
2022-10-05T23:56:15.510Z,0.93
2022-10-05T23:58:42.922Z,0.80
